createdAt,value
2023-11-25T00:01:41.697Z,28.73
2023-11-25T00:06:45.850Z,32.17
2023-11-25T00:11:49.644Z,29.25
2023-11-25T00:16:57.234Z,31.38
2023-11-25T00:22:00.872Z,30.45
2023-11-25T00:27:04.960Z,32.77
2023-11-25T00:32:10.296Z,33.55
2023-11-25T00:37:13.794Z,34.05
2023-11-25T00:42:17.525Z,32.53
2023-11-25T00:47:23.678Z,31.40
2023-11-25T00:52:27.223Z,33.28
2023-11-25T00:57:30.931Z,27.47
2023-11-25T01:02:36.786Z,26.25
2023-11-25T01:07:40.371Z,21.73
2023-11-25T01:12:43.967Z,21.75
2023-11-25T01:17:49.005Z,23.93
2023-11-25T01:22:52.707Z,18.08
2023-11-25T01:27:56.522Z,22.37
2023-11-25T01:33:03.436Z,25.13
2023-11-25T01:38:07.173Z,24.30
2023-11-25T01:43:12.883Z,23.63
2023-11-25T01:48:18.073Z,23.23
2023-11-25T01:53:22.451Z,24.27
2023-11-25T01:58:26.909Z,26.25
2023-11-25T02:03:32.894Z,22.65
2023-11-25T02:08:36.538Z,23.03
2023-11-25T02:13:40.337Z,20.87
2023-11-25T02:18:45.903Z,19.33
2023-11-25T02:23:50.729Z,21.73
2023-11-25T02:28:54.243Z,20.48
2023-11-25T02:33:57.879Z,21.77
2023-11-25T02:39:03.231Z,21.07
2023-11-25T02:44:08.660Z,21.53
2023-11-25T02:49:12.383Z,21.97
2023-11-25T02:54:17.499Z,18.77
2023-11-25T02:59:20.985Z,20.50
2023-11-25T03:04:28.348Z,19.70
2023-11-25T03:09:35.062Z,22.13
2023-11-25T03:14:38.538Z,21.67
2023-11-25T03:19:42.033Z,18.93
2023-11-25T03:24:47.195Z,20.20
2023-11-25T03:29:50.869Z,18.35
2023-11-25T03:34:54.419Z,22.53
2023-11-25T03:39:59.441Z,20.87
2023-11-25T03:45:02.933Z,21.17
2023-11-25T03:50:09.903Z,18.23
2023-11-25T03:55:15.245Z,19.23
2023-11-25T04:00:20.283Z,20.87
2023-11-25T04:05:25.195Z,19.93
2023-11-25T04:10:30.239Z,21.67
2023-11-25T04:15:34.129Z,20.17
2023-11-25T04:20:37.989Z,20.83
2023-11-25T04:25:44.954Z,20.85
2023-11-25T04:30:48.714Z,21.03
2023-11-25T04:35:52.758Z,19.67
2023-11-25T04:40:58.302Z,17.52
2023-11-25T04:46:05.974Z,21.20
2023-11-25T04:51:10.588Z,19.17
2023-11-25T04:56:17.241Z,20.40
2023-11-25T05:01:21.148Z,16.97
2023-11-25T05:06:24.872Z,18.43
2023-11-25T05:11:30.034Z,18.53
2023-11-25T05:16:33.585Z,19.33
2023-11-25T05:21:37.170Z,20.23
2023-11-25T05:26:42.082Z,19.17
2023-11-25T05:31:45.639Z,18.37
2023-11-25T05:36:49.666Z,17.77
2023-11-25T05:41:54.825Z,24.37
2023-11-25T05:46:58.615Z,20.40
2023-11-25T05:52:02.288Z,18.92
2023-11-25T05:57:07.589Z,17.37
2023-11-25T06:02:11.112Z,18.20
2023-11-25T06:07:28.571Z,19.70
2023-11-25T06:12:34.159Z,21.13
2023-11-25T06:17:38.359Z,22.73
2023-11-25T06:22:42.785Z,20.45
2023-11-25T06:27:48.570Z,19.60
2023-11-25T06:32:52.557Z,20.88
2023-11-25T06:37:56.367Z,18.30
2023-11-25T06:43:01.899Z,21.90
2023-11-25T06:48:05.870Z,18.15
2023-11-25T06:53:09.849Z,18.67
2023-11-25T06:58:15.085Z,19.93
2023-11-25T07:03:18.753Z,17.77
2023-11-25T07:08:22.250Z,19.02
2023-11-25T07:13:29.297Z,19.80
2023-11-25T07:18:34.419Z,20.48
2023-11-25T07:23:38.115Z,19.13
2023-11-25T07:28:44.818Z,19.65
2023-11-25T07:33:51.341Z,23.75
2023-11-25T07:38:55.031Z,22.48
2023-11-25T07:44:00.052Z,20.70
2023-11-25T07:49:03.834Z,19.55
2023-11-25T07:54:09.882Z,23.20
2023-11-25T07:59:14.981Z,21.05
2023-11-25T08:04:18.717Z,23.38
2023-11-25T08:09:22.654Z,19.77
2023-11-25T08:14:27.845Z,19.53
2023-11-25T08:19:31.627Z,21.38
2023-11-25T08:24:36.788Z,20.63
2023-11-25T08:29:46.182Z,19.83
2023-11-25T08:34:51.379Z,22.35
2023-11-25T08:39:55.024Z,26.30
2023-11-25T08:45:02.632Z,23.17
2023-11-25T08:50:11.669Z,22.75
2023-11-25T08:55:19.775Z,22.98
2023-11-25T09:00:25.664Z,23.30
2023-11-25T09:05:30.082Z,22.58
2023-11-25T09:10:35.592Z,21.38
2023-11-25T09:15:42.190Z,23.63
2023-11-25T09:20:46.481Z,22.55
2023-11-25T09:25:50.031Z,21.40
2023-11-25T09:30:55.159Z,20.88
2023-11-25T09:35:58.860Z,19.45
2023-11-25T09:41:02.538Z,23.38
2023-11-25T09:46:08.326Z,21.60
2023-11-25T09:51:15.580Z,21.55
2023-11-25T09:56:19.985Z,22.45
2023-11-25T10:01:25.552Z,21.85
2023-11-25T10:06:31.161Z,23.17
2023-11-25T10:11:35.829Z,24.50
2023-11-25T10:16:43.451Z,23.83
2023-11-25T10:21:48.200Z,25.35
2023-11-25T10:31:59.208Z,22.95
2023-11-25T10:37:03.197Z,22.17
2023-11-25T10:42:08.930Z,22.03
2023-11-25T10:47:31.490Z,23.08
2023-11-25T10:52:39.987Z,20.63
2023-11-25T10:57:43.998Z,25.60
2023-11-25T11:02:52.089Z,22.37
2023-11-25T11:08:03.300Z,23.17
2023-11-25T11:13:10.795Z,23.17
2023-11-25T11:18:21.614Z,24.48
2023-11-25T11:23:26.520Z,22.58
2023-11-25T11:28:42.940Z,24.05
2023-11-25T11:33:48.136Z,24.92
2023-11-25T11:38:54.171Z,21.20
2023-11-25T11:44:04.706Z,23.77
2023-11-25T11:49:10.691Z,25.25
2023-11-25T11:54:28.024Z,26.52
2023-11-25T12:00:13.384Z,24.10
2023-11-25T12:05:18.742Z,23.67
2023-11-25T12:10:22.577Z,24.23
2023-11-25T12:15:26.109Z,27.67
2023-11-25T12:20:32.577Z,28.35
2023-11-25T12:25:37.816Z,28.20
2023-11-25T12:30:42.585Z,28.90
2023-11-25T12:35:48.126Z,26.20
2023-11-25T12:40:51.643Z,29.70
2023-11-25T12:45:55.177Z,28.73
2023-11-25T12:51:06.441Z,28.00
2023-11-25T12:56:15.784Z,23.63
2023-11-25T13:01:26.582Z,27.55
2023-11-25T13:06:32.165Z,24.20
2023-11-25T13:11:36.658Z,26.77
2023-11-25T13:16:40.364Z,28.20
2023-11-25T13:21:45.518Z,32.40
2023-11-25T13:26:53.328Z,24.85
2023-11-25T13:31:57.833Z,26.27
2023-11-25T13:37:04.068Z,29.13
2023-11-25T13:42:09.059Z,25.15
2023-11-25T13:47:13.032Z,25.40
2023-11-25T13:52:17.954Z,26.20
2023-11-25T13:57:21.593Z,25.00
2023-11-25T14:02:28.992Z,28.37
2023-11-25T14:07:34.499Z,27.52
2023-11-25T14:12:38.919Z,26.38
2023-11-25T14:17:42.891Z,26.35
2023-11-25T14:22:49.227Z,28.10
2023-11-25T14:27:53.253Z,29.90
2023-11-25T14:32:56.969Z,29.67
2023-11-25T14:38:05.521Z,26.97
2023-11-25T14:43:10.997Z,26.85
2023-11-25T14:48:14.616Z,27.98
2023-11-25T14:53:19.685Z,26.45
2023-11-25T14:58:24.706Z,28.83
2023-11-25T15:03:29.340Z,31.17
2023-11-25T15:13:40.079Z,27.80
2023-11-25T15:18:43.832Z,30.47
2023-11-25T15:23:48.868Z,30.17
2023-11-25T15:28:55.743Z,28.75
2023-11-25T15:33:59.361Z,29.40
2023-11-25T15:39:06.047Z,33.13
2023-11-25T15:44:09.747Z,28.63
2023-11-25T15:49:13.732Z,27.60
2023-11-25T15:54:18.664Z,28.40
2023-11-25T15:59:25.477Z,35.25
2023-11-25T16:04:29.210Z,27.85
2023-11-25T16:09:36.897Z,33.90
2023-11-25T16:14:41.451Z,32.30
2023-11-25T16:19:45.280Z,34.47
2023-11-25T16:24:50.602Z,33.00
2023-11-25T16:29:56.233Z,32.43
2023-11-25T16:35:00.409Z,33.95
2023-11-25T16:40:06.999Z,34.07
2023-11-25T16:45:11.003Z,32.38
2023-11-25T16:50:15.335Z,34.88
2023-11-25T16:55:20.811Z,35.15
2023-11-25T17:00:24.536Z,33.60
2023-11-25T17:05:29.102Z,38.70
2023-11-25T17:10:34.213Z,37.28
2023-11-25T17:15:38.348Z,34.78
2023-11-25T17:20:42.037Z,34.70
2023-11-25T17:25:47.112Z,35.08
2023-11-25T17:30:50.810Z,37.08
2023-11-25T17:35:54.276Z,30.08
2023-11-25T17:40:59.342Z,29.98
2023-11-25T17:46:04.013Z,33.13
2023-11-25T17:56:13.583Z,35.37
2023-11-25T18:01:17.609Z,32.17
2023-11-25T18:06:21.285Z,32.33
2023-11-25T18:11:27.045Z,30.93
2023-11-25T18:16:30.792Z,33.33
2023-11-25T18:21:34.286Z,31.23
2023-11-25T18:26:39.219Z,32.42
2023-11-25T18:31:42.708Z,34.80
2023-11-25T18:36:46.162Z,32.67
2023-11-25T18:41:51.534Z,33.45
2023-11-25T18:46:55.470Z,35.83
2023-11-25T18:52:02.652Z,35.25
2023-11-25T18:57:08.627Z,37.70
2023-11-25T19:02:12.174Z,35.22
2023-11-25T19:07:16.238Z,33.45
2023-11-25T19:12:21.461Z,35.08
2023-11-25T19:17:25.282Z,30.77
2023-11-25T19:22:29.076Z,29.70
2023-11-25T19:27:34.225Z,33.55
2023-11-25T19:32:38.339Z,30.80
2023-11-25T19:37:42.215Z,29.70
2023-11-25T19:42:47.162Z,32.13
2023-11-25T19:47:50.899Z,34.97
2023-11-25T19:52:54.643Z,33.20
2023-11-25T19:57:59.942Z,36.53
2023-11-25T20:03:04.321Z,34.13
2023-11-25T20:08:09.819Z,32.53
2023-11-25T20:13:16.636Z,31.42
2023-11-25T20:18:20.453Z,33.35
2023-11-25T20:23:27.764Z,31.30
2023-11-25T20:28:32.724Z,32.67
2023-11-25T20:33:37.258Z,28.20
2023-11-25T20:38:42.741Z,35.92
2023-11-25T20:43:47.969Z,33.13
2023-11-25T20:48:51.883Z,37.65
2023-11-25T20:53:55.556Z,32.07
2023-11-25T20:59:02.053Z,30.60
2023-11-25T21:04:06.295Z,35.92
2023-11-25T21:09:10.204Z,34.45
2023-11-25T21:14:15.132Z,34.20
2023-11-25T21:19:19.435Z,33.92
2023-11-25T21:24:23.842Z,33.47
2023-11-25T21:29:28.903Z,36.10
2023-11-25T21:34:32.658Z,33.15
2023-11-25T21:39:36.168Z,33.17
2023-11-25T21:44:41.318Z,31.67
2023-11-25T21:49:45.144Z,31.42
2023-11-25T21:54:48.840Z,35.97
2023-11-25T21:59:54.302Z,33.72
2023-11-25T22:04:57.987Z,37.13
2023-11-25T22:10:02.112Z,36.85
2023-11-25T22:15:08.638Z,33.75
2023-11-25T22:20:12.790Z,30.95
2023-11-25T22:25:27.148Z,31.98
2023-11-25T22:30:32.477Z,33.42
2023-11-25T22:35:47.765Z,32.97
2023-11-25T22:40:59.298Z,33.00
2023-11-25T22:46:06.421Z,36.33
2023-11-25T22:51:10.119Z,35.10
2023-11-25T22:56:13.877Z,32.50
2023-11-25T23:01:20.845Z,33.73
2023-11-25T23:06:24.901Z,35.90
2023-11-25T23:11:28.636Z,32.95
2023-11-25T23:16:33.918Z,30.25
2023-11-25T23:21:37.851Z,28.20
2023-11-25T23:26:42.086Z,27.95
2023-11-25T23:31:47.169Z,29.02
2023-11-25T23:36:50.920Z,29.95
2023-11-25T23:41:54.899Z,25.25
2023-11-25T23:46:59.800Z,26.50
2023-11-25T23:52:03.995Z,26.70
2023-11-25T23:57:07.449Z,29.85
